Time;durP1;ratioP1;P1;durP2;ratioP2;P2;SDS_P1;SDS_P2;PMS_P1;PMS_P2;Temp;Humidity;BMP_temperature;BMP_pressure;BME280_temperature;BME280_humidity;BME280_pressure;Samples;Min_cycle;Max_cycle;Signal;HPM_P1;HPM_P2
2022/02/19 00:02:18;;;;;;;5.37;2.60;;;;;;;;;;5013929;28;20239;-58
2022/02/19 00:04:44;;;;;;;10.17;3.17;;;;;;;;;;5034968;28;20181;-56
2022/02/19 00:07:11;;;;;;;6.73;3.30;;;;;;;;;;5013885;28;20182;-56
2022/02/19 00:09:37;;;;;;;6.50;3.27;;;;;;;;;;5018072;28;20211;-56
2022/02/19 00:12:04;;;;;;;9.00;3.97;;;;;;;;;;5029758;28;20664;-56
2022/02/19 00:14:30;;;;;;;7.53;3.57;;;;;;;;;;5027702;28;20181;-56
2022/02/19 00:16:57;;;;;;;10.53;3.83;;;;;;;;;;5029330;28;20194;-56
2022/02/19 00:19:23;;;;;;;7.97;3.40;;;;;;;;;;5023364;28;20182;-56
2022/02/19 00:21:49;;;;;;;8.43;3.10;;;;;;;;;;5014516;28;20181;-55
2022/02/19 00:24:15;;;;;;;9.40;3.17;;;;;;;;;;5012801;28;20265;-56
2022/02/19 00:26:42;;;;;;;9.13;3.47;;;;;;;;;;5030614;28;20198;-57
2022/02/19 00:29:08;;;;;;;9.40;3.80;;;;;;;;;;5029812;28;20243;-56
2022/02/19 00:31:35;;;;;;;8.60;3.17;;;;;;;;;;5010573;28;20228;-56
2022/02/19 00:34:01;;;;;;;8.17;3.43;;;;;;;;;;5026310;28;20198;-57
2022/02/19 00:36:27;;;;;;;8.23;4.27;;;;;;;;;;5007971;28;20697;-56
2022/02/19 00:38:54;;;;;;;7.30;3.20;;;;;;;;;;5029900;28;20188;-56
2022/02/19 00:41:20;;;;;;;10.77;4.00;;;;;;;;;;5033643;28;20231;-56
2022/02/19 00:43:46;;;;;;;8.40;3.43;;;;;;;;;;5026041;28;20585;-56
2022/02/19 00:46:13;;;;;;;8.43;4.10;;;;;;;;;;5012576;28;20192;-56
2022/02/19 00:48:39;;;;;;;7.33;2.80;;;;;;;;;;5029261;28;20637;-56
2022/02/19 00:51:05;;;;;;;8.70;3.33;;;;;;;;;;5012499;28;20209;-56
2022/02/19 00:53:31;;;;;;;10.10;3.50;;;;;;;;;;5013299;28;20589;-57
2022/02/19 00:55:58;;;;;;;7.23;2.87;;;;;;;;;;5021632;28;20244;-56
2022/02/19 00:58:24;;;;;;;8.43;3.53;;;;;;;;;;5014003;28;20177;-57
2022/02/19 01:00:50;;;;;;;8.63;3.43;;;;;;;;;;5017402;28;20175;-56
2022/02/19 01:03:17;;;;;;;6.10;3.40;;;;;;;;;;5016426;28;20189;-57
2022/02/19 01:05:43;;;;;;;9.20;3.57;;;;;;;;;;5013611;28;20261;-56
2022/02/19 01:08:09;;;;;;;6.13;3.07;;;;;;;;;;5008389;28;20583;-56
2022/02/19 01:10:37;;;;;;;9.97;3.33;;;;;;;;;;5029485;28;20579;-56
2022/02/19 01:13:11;;;;;;;6.43;3.47;;;;;;;;;;5028385;28;20185;-57
2022/02/19 01:15:37;;;;;;;8.37;3.37;;;;;;;;;;5028071;28;20209;-56
2022/02/19 01:18:04;;;;;;;12.17;4.70;;;;;;;;;;5029408;28;20165;-56
2022/02/19 01:20:32;;;;;;;9.30;3.20;;;;;;;;;;5028072;28;20240;-56
2022/02/19 01:22:59;;;;;;;7.13;3.13;;;;;;;;;;5011445;28;20688;-57
2022/02/19 01:25:25;;;;;;;8.80;2.83;;;;;;;;;;5024043;28;20205;-56
2022/02/19 01:27:51;;;;;;;7.70;3.60;;;;;;;;;;5028285;28;20276;-56
2022/02/19 01:30:18;;;;;;;6.23;2.87;;;;;;;;;;5035710;28;20640;-57
2022/02/19 01:32:44;;;;;;;5.77;2.73;;;;;;;;;;5026014;28;20182;-56
2022/02/19 01:35:10;;;;;;;6.90;2.63;;;;;;;;;;5025433;28;20169;-56
2022/02/19 01:37:36;;;;;;;9.03;3.77;;;;;;;;;;5010432;28;20689;-56
2022/02/19 01:40:03;;;;;;;9.90;3.03;;;;;;;;;;5023293;28;20197;-55
2022/02/19 01:42:30;;;;;;;5.83;3.00;;;;;;;;;;5012267;28;20657;-57
2022/02/19 01:44:56;;;;;;;10.33;3.27;;;;;;;;;;5015894;28;20183;-57
2022/02/19 01:47:23;;;;;;;5.23;2.43;;;;;;;;;;4990260;28;20196;-57
2022/02/19 01:49:49;;;;;;;7.67;3.40;;;;;;;;;;5031519;28;20185;-57
2022/02/19 01:52:16;;;;;;;8.37;3.47;;;;;;;;;;5019632;28;20191;-56
2022/02/19 01:54:43;;;;;;;10.97;3.20;;;;;;;;;;5027390;28;20695;-57
2022/02/19 01:57:09;;;;;;;5.60;2.70;;;;;;;;;;5047916;28;20298;-56
2022/02/19 01:59:36;;;;;;;6.17;2.80;;;;;;;;;;5014418;28;20182;-57
2022/02/19 02:02:05;;;;;;;6.20;2.83;;;;;;;;;;5024656;28;20189;-56
2022/02/19 02:04:32;;;;;;;8.07;2.93;;;;;;;;;;5012327;28;20215;-56
2022/02/19 02:06:59;;;;;;;11.07;3.00;;;;;;;;;;5027980;28;20181;-57
2022/02/19 02:09:25;;;;;;;6.50;2.50;;;;;;;;;;5009183;28;20187;-57
2022/02/19 02:11:54;;;;;;;7.27;2.80;;;;;;;;;;5010257;28;20225;-57
2022/02/19 02:14:20;;;;;;;7.27;2.80;;;;;;;;;;5013884;28;20264;-58
2022/02/19 02:16:47;;;;;;;6.70;2.40;;;;;;;;;;5031590;28;20206;-57
2022/02/19 02:19:15;;;;;;;9.83;3.30;;;;;;;;;;5004201;28;20175;-56
2022/02/19 02:21:41;;;;;;;6.53;2.70;;;;;;;;;;5027262;28;20177;-57
2022/02/19 02:24:07;;;;;;;11.73;3.37;;;;;;;;;;5028265;28;20605;-57
2022/02/19 02:26:34;;;;;;;7.37;2.70;;;;;;;;;;5032201;28;20261;-57
2022/02/19 02:29:01;;;;;;;6.93;2.90;;;;;;;;;;5027836;28;20177;-57
2022/02/19 02:31:27;;;;;;;8.13;3.40;;;;;;;;;;5017272;28;20190;-56
2022/02/19 02:33:54;;;;;;;4.83;2.50;;;;;;;;;;5018079;28;20233;-57
2022/02/19 02:36:20;;;;;;;8.70;3.17;;;;;;;;;;5010083;28;20208;-56
2022/02/19 02:38:47;;;;;;;8.50;3.23;;;;;;;;;;5027944;28;20180;-57
2022/02/19 02:41:16;;;;;;;13.70;3.03;;;;;;;;;;5032924;28;20182;-57
2022/02/19 02:43:42;;;;;;;6.90;2.93;;;;;;;;;;5024206;28;20185;-57
2022/02/19 02:46:09;;;;;;;6.00;2.70;;;;;;;;;;5026537;28;20552;-57
2022/02/19 02:48:35;;;;;;;7.47;2.67;;;;;;;;;;5008818;28;20177;-57
2022/02/19 02:51:03;;;;;;;4.47;2.33;;;;;;;;;;5009380;28;20231;-57
2022/02/19 02:53:30;;;;;;;7.03;2.57;;;;;;;;;;5026637;28;20182;-57
2022/02/19 02:55:59;;;;;;;5.57;2.40;;;;;;;;;;5029536;28;20229;-57
2022/02/19 02:58:25;;;;;;;6.80;2.57;;;;;;;;;;5008827;28;20798;-57
2022/02/19 03:00:51;;;;;;;6.90;2.20;;;;;;;;;;5029696;28;20190;-57
2022/02/19 03:03:18;;;;;;;8.97;3.13;;;;;;;;;;5022398;28;20667;-57
2022/02/19 03:05:44;;;;;;;7.80;2.67;;;;;;;;;;5032357;28;20244;-56
2022/02/19 03:08:10;;;;;;;5.50;2.60;;;;;;;;;;5021506;28;20178;-57
2022/02/19 03:10:37;;;;;;;5.47;2.30;;;;;;;;;;5027038;28;20188;-57
2022/02/19 03:13:03;;;;;;;4.87;2.70;;;;;;;;;;5052675;28;20189;-57
2022/02/19 03:15:29;;;;;;;7.33;2.53;;;;;;;;;;5034375;28;20591;-57
2022/02/19 03:17:55;;;;;;;6.00;2.40;;;;;;;;;;5009514;28;20676;-57
2022/02/19 03:20:22;;;;;;;6.50;2.33;;;;;;;;;;5037493;28;20234;-57
2022/02/19 03:22:51;;;;;;;7.90;2.70;;;;;;;;;;5047929;28;20550;-57
2022/02/19 03:25:17;;;;;;;6.50;2.60;;;;;;;;;;5025125;28;20675;-57
2022/02/19 03:27:44;;;;;;;2.83;2.13;;;;;;;;;;5025106;28;20221;-57
2022/02/19 03:30:11;;;;;;;7.47;2.57;;;;;;;;;;5027375;28;20185;-57
2022/02/19 03:32:37;;;;;;;7.73;2.33;;;;;;;;;;5036165;28;20265;-57
2022/02/19 03:35:04;;;;;;;4.90;2.30;;;;;;;;;;5016402;28;20522;-57
2022/02/19 03:37:37;;;;;;;6.43;2.37;;;;;;;;;;5027228;28;20202;-57
2022/02/19 03:40:06;;;;;;;4.57;2.20;;;;;;;;;;5029008;28;20640;-57
2022/02/19 03:42:39;;;;;;;7.60;2.00;;;;;;;;;;5024530;28;20192;-57
2022/02/19 03:45:06;;;;;;;3.80;1.90;;;;;;;;;;5026964;28;20655;-57
2022/02/19 03:47:33;;;;;;;3.03;1.87;;;;;;;;;;5026731;28;20193;-57
2022/02/19 03:49:59;;;;;;;4.50;1.87;;;;;;;;;;5030778;28;20303;-56
2022/02/19 03:52:25;;;;;;;3.30;1.67;;;;;;;;;;5040917;28;20201;-57
2022/02/19 03:54:51;;;;;;;4.43;1.80;;;;;;;;;;5021538;28;20208;-58
2022/02/19 03:57:18;;;;;;;5.43;1.87;;;;;;;;;;5016892;28;20215;-57
2022/02/19 03:59:44;;;;;;;6.80;2.20;;;;;;;;;;5018472;28;20205;-57
2022/02/19 04:02:10;;;;;;;3.87;2.00;;;;;;;;;;5038263;28;20219;-57
2022/02/19 04:04:36;;;;;;;5.17;2.40;;;;;;;;;;5026687;28;20663;-57
2022/02/19 04:07:02;;;;;;;5.33;1.73;;;;;;;;;;5016011;28;20229;-57
2022/02/19 04:09:29;;;;;;;7.13;1.93;;;;;;;;;;5031656;28;20534;-57
2022/02/19 04:11:55;;;;;;;6.00;2.13;;;;;;;;;;5030737;28;20641;-57
2022/02/19 04:14:21;;;;;;;6.57;2.27;;;;;;;;;;5029940;28;20186;-57
2022/02/19 04:16:47;;;;;;;5.73;4.10;;;;;;;;;;5032169;28;20223;-56
2022/02/19 04:19:14;;;;;;;5.43;2.13;;;;;;;;;;5010539;28;20557;-57
2022/02/19 04:21:40;;;;;;;6.17;1.77;;;;;;;;;;5040389;28;20185;-57
2022/02/19 04:24:06;;;;;;;3.63;2.40;;;;;;;;;;5024051;28;20182;-56
2022/02/19 04:26:32;;;;;;;5.57;2.37;;;;;;;;;;5019324;28;20561;-56
2022/02/19 04:28:59;;;;;;;5.50;2.53;;;;;;;;;;5030548;28;20189;-56
2022/02/19 04:31:25;;;;;;;6.63;3.10;;;;;;;;;;5046047;28;20234;-56
2022/02/19 04:33:52;;;;;;;3.47;1.83;;;;;;;;;;5035296;28;20666;-57
2022/02/19 04:36:18;;;;;;;7.27;3.10;;;;;;;;;;5038217;28;20205;-57
2022/02/19 04:38:45;;;;;;;6.33;2.43;;;;;;;;;;5030109;28;20227;-56
2022/02/19 04:41:11;;;;;;;3.97;2.10;;;;;;;;;;5026678;28;20727;-57
2022/02/19 04:43:37;;;;;;;5.88;2.53;;;;;;;;;;5027008;28;20740;-57
2022/02/19 04:46:03;;;;;;;7.87;2.57;;;;;;;;;;5031226;28;20300;-57
2022/02/19 04:48:29;;;;;;;8.00;3.07;;;;;;;;;;5028112;28;20253;-57
2022/02/19 04:50:58;;;;;;;7.67;2.50;;;;;;;;;;5022569;28;20200;-57
2022/02/19 04:53:24;;;;;;;7.77;2.67;;;;;;;;;;5011718;28;20174;-57
2022/02/19 04:55:50;;;;;;;9.00;2.40;;;;;;;;;;5041249;28;20532;-57
2022/02/19 04:58:16;;;;;;;5.87;2.77;;;;;;;;;;5039861;28;20657;-57
2022/02/19 05:00:43;;;;;;;8.50;2.60;;;;;;;;;;5030270;28;20576;-57
2022/02/19 05:03:09;;;;;;;8.70;3.83;;;;;;;;;;5006493;28;20205;-57
2022/02/19 05:05:35;;;;;;;5.03;2.23;;;;;;;;;;5036501;28;20201;-57
2022/02/19 05:08:01;;;;;;;4.47;2.23;;;;;;;;;;5029389;28;20228;-57
2022/02/19 05:10:27;;;;;;;7.80;2.27;;;;;;;;;;5037171;28;20556;-57
2022/02/19 05:12:53;;;;;;;7.57;2.93;;;;;;;;;;5029299;28;20677;-57
2022/02/19 05:15:19;;;;;;;5.40;2.77;;;;;;;;;;5029196;28;20184;-57
2022/02/19 05:17:45;;;;;;;5.90;2.50;;;;;;;;;;5021174;28;20221;-57
2022/02/19 05:20:12;;;;;;;7.40;3.20;;;;;;;;;;5028806;28;20277;-57
2022/02/19 05:22:38;;;;;;;4.80;2.20;;;;;;;;;;5022386;28;20178;-57
2022/02/19 05:25:05;;;;;;;10.93;2.93;;;;;;;;;;5026590;28;20502;-57
2022/02/19 05:27:31;;;;;;;7.03;2.97;;;;;;;;;;5035356;28;20265;-57
2022/02/19 05:29:57;;;;;;;11.67;3.80;;;;;;;;;;5031938;28;20189;-57
2022/02/19 05:32:23;;;;;;;4.27;3.03;;;;;;;;;;5011658;28;20216;-57
2022/02/19 05:34:51;;;;;;;8.13;3.30;;;;;;;;;;5020122;28;20188;-57
2022/02/19 05:37:17;;;;;;;10.40;2.80;;;;;;;;;;5011899;28;20233;-57
2022/02/19 05:39:43;;;;;;;6.70;2.67;;;;;;;;;;5029055;28;20182;-57
2022/02/19 05:42:09;;;;;;;9.43;3.07;;;;;;;;;;5024910;28;20246;-57
2022/02/19 05:44:35;;;;;;;6.70;3.75;;;;;;;;;;5028249;28;20421;-57
2022/02/19 05:47:01;;;;;;;6.87;3.13;;;;;;;;;;5034231;28;20205;-57
2022/02/19 05:49:27;;;;;;;8.73;3.47;;;;;;;;;;5029262;28;20181;-57
2022/02/19 05:51:53;;;;;;;8.90;4.13;;;;;;;;;;5029132;28;20185;-57
2022/02/19 05:54:20;;;;;;;10.27;3.33;;;;;;;;;;5028168;28;20182;-57
2022/02/19 05:56:46;;;;;;;8.33;4.03;;;;;;;;;;5029457;28;20248;-57
2022/02/19 05:59:13;;;;;;;7.43;3.37;;;;;;;;;;5016033;28;20590;-57
2022/02/19 06:01:39;;;;;;;13.33;3.13;;;;;;;;;;5034016;28;20178;-57
2022/02/19 06:04:06;;;;;;;7.73;3.27;;;;;;;;;;5006387;28;20558;-57
2022/02/19 06:06:32;;;;;;;7.67;2.80;;;;;;;;;;5007622;28;20627;-57
2022/02/19 06:08:58;;;;;;;15.07;3.73;;;;;;;;;;5017859;28;20186;-57
2022/02/19 06:11:24;;;;;;;9.90;3.20;;;;;;;;;;5018828;28;20194;-57
2022/02/19 06:13:51;;;;;;;7.87;2.77;;;;;;;;;;5009858;28;20188;-57
2022/02/19 06:16:17;;;;;;;7.07;2.27;;;;;;;;;;5008114;28;20252;-57
2022/02/19 06:18:47;;;;;;;7.67;2.87;;;;;;;;;;5009283;28;20637;-57
2022/02/19 06:21:14;;;;;;;6.20;2.80;;;;;;;;;;5012075;28;20653;-57
2022/02/19 06:23:40;;;;;;;5.40;2.10;;;;;;;;;;5013590;28;20673;-57
2022/02/19 06:26:06;;;;;;;13.27;2.50;;;;;;;;;;5025361;28;20182;-57
2022/02/19 06:28:33;;;;;;;3.07;1.80;;;;;;;;;;5027308;28;20225;-56
2022/02/19 06:30:59;;;;;;;5.20;2.20;;;;;;;;;;5010349;28;20520;-57
2022/02/19 06:33:25;;;;;;;7.57;2.47;;;;;;;;;;5010320;28;20664;-58
2022/02/19 06:35:51;;;;;;;4.23;1.90;;;;;;;;;;5015277;28;20998;-57
2022/02/19 06:38:17;;;;;;;4.00;2.10;;;;;;;;;;5027571;28;20182;-57
2022/02/19 06:40:43;;;;;;;8.03;2.73;;;;;;;;;;5022766;28;20177;-57
2022/02/19 06:43:10;;;;;;;6.73;2.00;;;;;;;;;;5036731;28;20169;-57
2022/02/19 06:45:36;;;;;;;6.37;2.00;;;;;;;;;;5009893;28;20185;-57
2022/02/19 06:48:02;;;;;;;7.13;3.00;;;;;;;;;;5027055;28;20177;-57
2022/02/19 06:50:29;;;;;;;7.20;2.57;;;;;;;;;;5026378;28;20548;-57
2022/02/19 06:52:55;;;;;;;7.37;2.67;;;;;;;;;;5009912;28;20185;-57
2022/02/19 06:55:22;;;;;;;7.57;2.50;;;;;;;;;;5010800;28;20189;-57
2022/02/19 06:57:49;;;;;;;10.37;2.53;;;;;;;;;;5029590;28;20217;-57
2022/02/19 07:00:16;;;;;;;8.47;2.83;;;;;;;;;;5010262;28;20189;-57
2022/02/19 07:02:42;;;;;;;9.47;2.83;;;;;;;;;;5012350;28;20609;-57
2022/02/19 07:05:09;;;;;;;8.23;2.43;;;;;;;;;;5028902;28;20552;-57
2022/02/19 07:07:35;;;;;;;9.67;3.13;;;;;;;;;;5009234;28;20213;-57
2022/02/19 07:10:02;;;;;;;8.43;2.93;;;;;;;;;;5027542;28;20649;-57
2022/02/19 07:12:29;;;;;;;10.20;2.80;;;;;;;;;;5027157;28;20595;-57
2022/02/19 07:14:58;;;;;;;7.07;2.57;;;;;;;;;;5009516;28;20185;-57
2022/02/19 07:17:25;;;;;;;11.57;2.63;;;;;;;;;;5009120;28;20300;-57
2022/02/19 07:19:51;;;;;;;8.67;3.00;;;;;;;;;;5007587;28;20264;-57
2022/02/19 07:22:17;;;;;;;7.47;2.80;;;;;;;;;;5033702;28;20184;-57
2022/02/19 07:24:43;;;;;;;6.10;2.83;;;;;;;;;;5020792;28;20542;-57
2022/02/19 07:27:09;;;;;;;8.03;3.27;;;;;;;;;;5026574;28;20359;-57
2022/02/19 07:29:35;;;;;;;5.73;3.33;;;;;;;;;;5030347;28;20537;-57
2022/02/19 07:32:02;;;;;;;8.30;3.30;;;;;;;;;;5027891;28;20177;-57
2022/02/19 07:34:28;;;;;;;8.80;3.40;;;;;;;;;;5024006;28;20193;-57
2022/02/19 07:36:54;;;;;;;6.43;2.43;;;;;;;;;;5026323;28;20196;-56
2022/02/19 07:39:20;;;;;;;7.20;3.10;;;;;;;;;;5025878;28;20178;-57
2022/02/19 07:41:48;;;;;;;5.53;2.60;;;;;;;;;;5027586;28;20657;-57
2022/02/19 07:44:14;;;;;;;10.33;3.80;;;;;;;;;;5028128;28;20260;-57
2022/02/19 07:46:40;;;;;;;8.57;2.70;;;;;;;;;;5037385;28;20181;-57
2022/02/19 08:00:22;;;;;;;12.37;4.37;;;;;;;;;;5022317;28;20211;-57
2022/02/19 08:02:49;;;;;;;8.77;3.50;;;;;;;;;;5026633;28;20174;-56
2022/02/19 08:05:15;;;;;;;6.53;3.33;;;;;;;;;;5030460;28;20629;-57
2022/02/19 08:07:41;;;;;;;8.57;3.30;;;;;;;;;;5029429;28;20468;-57
2022/02/19 08:10:08;;;;;;;8.47;3.10;;;;;;;;;;5030327;28;20311;-57
2022/02/19 08:12:34;;;;;;;6.57;3.03;;;;;;;;;;5030029;28;20213;-57
2022/02/19 08:15:00;;;;;;;6.83;2.80;;;;;;;;;;5030198;28;20189;-56
2022/02/19 08:17:27;;;;;;;10.53;4.03;;;;;;;;;;5030772;28;20679;-57
2022/02/19 08:19:54;;;;;;;8.83;4.40;;;;;;;;;;5030335;28;20192;-57
2022/02/19 08:22:20;;;;;;;6.03;2.70;;;;;;;;;;5030710;28;20634;-57
2022/02/19 08:24:46;;;;;;;7.57;2.93;;;;;;;;;;5030108;28;20217;-57
2022/02/19 08:27:12;;;;;;;6.83;2.93;;;;;;;;;;5005909;28;20237;-57
2022/02/19 08:29:39;;;;;;;7.47;2.40;;;;;;;;;;5014866;28;20190;-57
2022/02/19 08:32:05;;;;;;;8.70;3.20;;;;;;;;;;5022960;28;20190;-57
2022/02/19 08:34:31;;;;;;;3.93;2.17;;;;;;;;;;5029440;28;20629;-57
2022/02/19 08:36:57;;;;;;;6.30;2.50;;;;;;;;;;5030611;28;20238;-57
2022/02/19 08:39:24;;;;;;;4.70;2.47;;;;;;;;;;5011268;28;20206;-57
2022/02/19 08:41:51;;;;;;;7.53;2.60;;;;;;;;;;5030519;28;20177;-57
2022/02/19 08:44:18;;;;;;;6.67;2.87;;;;;;;;;;5011644;28;20708;-57
2022/02/19 08:46:44;;;;;;;4.47;1.87;;;;;;;;;;5013151;28;20223;-57
2022/02/19 08:49:10;;;;;;;8.20;2.63;;;;;;;;;;5028327;28;20264;-57
2022/02/19 08:51:37;;;;;;;9.83;2.60;;;;;;;;;;5021006;28;20182;-57
2022/02/19 08:54:03;;;;;;;12.77;3.03;;;;;;;;;;5016612;28;20197;-57
2022/02/19 08:56:30;;;;;;;14.07;3.33;;;;;;;;;;5031590;28;20330;-57
2022/02/19 08:58:56;;;;;;;11.23;3.00;;;;;;;;;;5030856;28;20177;-58
2022/02/19 09:01:22;;;;;;;8.83;2.50;;;;;;;;;;5028162;28;20177;-57
2022/02/19 09:03:48;;;;;;;16.90;3.07;;;;;;;;;;5021409;28;20716;-57
2022/02/19 09:06:14;;;;;;;8.77;2.80;;;;;;;;;;5029764;28;20257;-57
2022/02/19 09:08:40;;;;;;;6.63;2.57;;;;;;;;;;5029408;28;20177;-57
2022/02/19 09:11:07;;;;;;;16.50;3.27;;;;;;;;;;5028560;28;20235;-57
2022/02/19 09:13:33;;;;;;;9.33;3.20;;;;;;;;;;5020828;28;20190;-58
2022/02/19 09:15:59;;;;;;;10.20;3.13;;;;;;;;;;5031094;28;20808;-57
2022/02/19 09:18:25;;;;;;;11.53;2.67;;;;;;;;;;5028104;28;20633;-57
2022/02/19 09:20:51;;;;;;;10.27;2.53;;;;;;;;;;5020404;28;20178;-57
2022/02/19 09:23:18;;;;;;;7.07;2.33;;;;;;;;;;5007770;28;20676;-58
2022/02/19 09:25:45;;;;;;;12.70;2.50;;;;;;;;;;4995766;28;20182;-58
2022/02/19 09:28:12;;;;;;;6.70;2.73;;;;;;;;;;5028731;28;20608;-57
2022/02/19 09:30:39;;;;;;;7.67;2.20;;;;;;;;;;5011566;28;20181;-57
2022/02/19 09:33:05;;;;;;;7.90;2.53;;;;;;;;;;5024173;28;20179;-57
2022/02/19 09:35:32;;;;;;;6.07;2.53;;;;;;;;;;4995532;28;20562;-58
2022/02/19 09:37:58;;;;;;;5.80;2.47;;;;;;;;;;5018752;28;20290;-57
2022/02/19 09:40:25;;;;;;;7.00;2.20;;;;;;;;;;5028336;28;20181;-57
2022/02/19 09:42:51;;;;;;;14.20;2.73;;;;;;;;;;5015560;28;20265;-57
2022/02/19 09:45:17;;;;;;;4.90;2.57;;;;;;;;;;5038802;28;20180;-57
2022/02/19 09:47:44;;;;;;;6.53;2.40;;;;;;;;;;5045592;28;20554;-58
2022/02/19 09:50:11;;;;;;;6.50;2.50;;;;;;;;;;5028814;28;20181;-57
2022/02/19 09:52:38;;;;;;;9.53;2.80;;;;;;;;;;5046525;28;20205;-57
2022/02/19 09:55:05;;;;;;;7.80;2.50;;;;;;;;;;5022766;28;20618;-57
2022/02/19 09:57:31;;;;;;;8.40;2.13;;;;;;;;;;5028757;28;20214;-57
2022/02/19 09:59:57;;;;;;;8.33;2.83;;;;;;;;;;5027254;28;20673;-57
2022/02/19 10:02:34;;;;;;;5.70;2.30;;;;;;;;;;5037955;28;20201;-57
2022/02/19 10:05:18;;;;;;;7.23;2.20;;;;;;;;;;5038749;28;20321;-57
2022/02/19 10:07:59;;;;;;;5.23;2.20;;;;;;;;;;5021425;28;20193;-58
2022/02/19 10:10:26;;;;;;;8.50;3.10;;;;;;;;;;5018605;28;20632;-57
2022/02/19 10:12:53;;;;;;;9.93;2.80;;;;;;;;;;5028307;28;20284;-57
2022/02/19 10:15:19;;;;;;;6.50;2.40;;;;;;;;;;5028951;28;20296;-57
2022/02/19 10:17:45;;;;;;;7.47;2.33;;;;;;;;;;5027874;28;20201;-57
2022/02/19 10:20:14;;;;;;;5.83;2.50;;;;;;;;;;5028368;28;20178;-57
2022/02/19 10:22:40;;;;;;;10.70;3.37;;;;;;;;;;5025904;28;20264;-57
2022/02/19 10:25:08;;;;;;;10.53;3.20;;;;;;;;;;5028811;28;20177;-57
2022/02/19 10:27:49;;;;;;;4.27;2.10;;;;;;;;;;5010462;28;20226;-58
2022/02/19 10:30:26;;;;;;;6.67;3.03;;;;;;;;;;5027003;28;20186;-57
2022/02/19 10:32:57;;;;;;;7.83;3.17;;;;;;;;;;5026002;28;20232;-57
2022/02/19 10:35:36;;;;;;;9.93;3.53;;;;;;;;;;5020619;28;20212;-57
2022/02/19 10:38:04;;;;;;;5.23;2.30;;;;;;;;;;5020477;28;20212;-57
2022/02/19 10:40:34;;;;;;;7.43;2.70;;;;;;;;;;5032036;28;20178;-57
2022/02/19 10:43:04;;;;;;;5.93;2.27;;;;;;;;;;5028158;28;20396;-58
2022/02/19 10:45:31;;;;;;;4.10;2.20;;;;;;;;;;5010299;28;20189;-57
2022/02/19 10:48:18;;;;;;;10.40;3.03;;;;;;;;;;5009927;28;20185;-57
2022/02/19 10:50:45;;;;;;;6.50;2.67;;;;;;;;;;5027834;28;20186;-57
2022/02/19 10:53:19;;;;;;;6.77;2.00;;;;;;;;;;5022166;28;20201;-57
2022/02/19 10:55:46;;;;;;;7.00;1.97;;;;;;;;;;5024768;28;20189;-57
2022/02/19 10:58:12;;;;;;;4.87;1.80;;;;;;;;;;5023366;28;20206;-57
2022/02/19 11:00:40;;;;;;;4.93;2.10;;;;;;;;;;5025522;28;20216;-57
2022/02/19 11:03:06;;;;;;;5.93;1.80;;;;;;;;;;5022461;28;20280;-57
2022/02/19 11:05:33;;;;;;;2.43;2.03;;;;;;;;;;5007129;28;20194;-58
2022/02/19 11:08:03;;;;;;;6.47;1.70;;;;;;;;;;5039707;28;20187;-58
2022/02/19 11:10:29;;;;;;;1.70;1.33;;;;;;;;;;5036253;28;20188;-58
2022/02/19 11:12:56;;;;;;;3.87;1.90;;;;;;;;;;5027603;28;20170;-58
2022/02/19 11:15:28;;;;;;;6.00;1.80;;;;;;;;;;5026088;28;20182;-57
2022/02/19 11:17:56;;;;;;;5.83;2.70;;;;;;;;;;5042835;28;20292;-58
2022/02/19 11:20:24;;;;;;;7.50;2.60;;;;;;;;;;5030194;28;20265;-58
2022/02/19 11:22:54;;;;;;;2.97;1.60;;;;;;;;;;5000959;28;20182;-57
2022/02/19 11:25:26;;;;;;;7.63;2.13;;;;;;;;;;5021043;28;20190;-57
2022/02/19 11:27:58;;;;;;;4.43;1.70;;;;;;;;;;5033117;28;20231;-57
2022/02/19 11:30:26;;;;;;;5.23;1.30;;;;;;;;;;5038966;28;20374;-58
2022/02/19 11:32:54;;;;;;;3.93;1.43;;;;;;;;;;5016077;28;20185;-57
2022/02/19 11:35:33;;;;;;;8.87;2.03;;;;;;;;;;5037882;28;20965;-57
2022/02/19 11:37:59;;;;;;;4.40;1.83;;;;;;;;;;5042149;28;20185;-57
2022/02/19 11:40:25;;;;;;;6.50;2.03;;;;;;;;;;5032768;28;20220;-57
2022/02/19 11:42:53;;;;;;;5.20;1.70;;;;;;;;;;5031568;28;20182;-57
2022/02/19 11:45:19;;;;;;;4.50;1.63;;;;;;;;;;5042020;28;20655;-57
2022/02/19 11:47:46;;;;;;;4.60;1.60;;;;;;;;;;5029789;28;20190;-57
2022/02/19 11:50:33;;;;;;;4.23;1.60;;;;;;;;;;5039339;28;20181;-57
2022/02/19 11:53:22;;;;;;;5.17;1.73;;;;;;;;;;5012399;28;20173;-57
2022/02/19 11:55:49;;;;;;;4.67;1.73;;;;;;;;;;5018232;28;20198;-57
2022/02/19 11:58:22;;;;;;;3.50;1.50;;;;;;;;;;5033634;28;20645;-57
2022/02/19 12:00:48;;;;;;;4.40;1.67;;;;;;;;;;5051373;28;20169;-57
2022/02/19 12:03:17;;;;;;;3.77;1.80;;;;;;;;;;5013661;28;20178;-57
2022/02/19 12:06:02;;;;;;;5.43;2.10;;;;;;;;;;5033815;28;20181;-58
2022/02/19 12:08:28;;;;;;;7.97;2.40;;;;;;;;;;5022667;28;20253;-57
2022/02/19 12:11:07;;;;;;;5.53;2.33;;;;;;;;;;5036349;28;20189;-58
2022/02/19 12:13:46;;;;;;;6.10;1.93;;;;;;;;;;5046017;28;20219;-57
2022/02/19 12:16:42;;;;;;;6.10;2.10;;;;;;;;;;5048720;28;20177;-57
2022/02/19 12:19:10;;;;;;;4.33;2.20;;;;;;;;;;5047058;28;20168;-57
2022/02/19 12:21:43;;;;;;;3.87;1.97;;;;;;;;;;5050604;28;20239;-57
2022/02/19 12:24:13;;;;;;;10.17;2.43;;;;;;;;;;5049132;28;20172;-58
2022/02/19 12:26:59;;;;;;;5.20;2.50;;;;;;;;;;5039059;28;20328;-57
2022/02/19 12:29:28;;;;;;;6.60;2.60;;;;;;;;;;5031061;28;20182;-57
2022/02/19 12:32:03;;;;;;;5.90;2.40;;;;;;;;;;5035241;28;20177;-57
2022/02/19 12:34:30;;;;;;;3.77;2.10;;;;;;;;;;5026537;28;20588;-57
2022/02/19 12:36:57;;;;;;;7.53;2.60;;;;;;;;;;5045212;28;20221;-57
2022/02/19 12:39:23;;;;;;;3.97;2.30;;;;;;;;;;5031070;28;20536;-57
2022/02/19 12:41:59;;;;;;;6.57;2.30;;;;;;;;;;5029890;28;20178;-57
2022/02/19 12:44:28;;;;;;;6.00;2.20;;;;;;;;;;5027314;28;20340;-57
2022/02/19 12:46:55;;;;;;;5.27;2.00;;;;;;;;;;5030300;28;20629;-57
2022/02/19 12:49:23;;;;;;;4.03;1.63;;;;;;;;;;5028846;28;20177;-57
2022/02/19 12:51:59;;;;;;;6.40;1.83;;;;;;;;;;5035604;28;20227;-57
2022/02/19 12:54:43;;;;;;;2.47;1.87;;;;;;;;;;5030084;28;20177;-57
2022/02/19 12:57:10;;;;;;;7.90;2.20;;;;;;;;;;5034384;28;20205;-57
2022/02/19 12:59:37;;;;;;;4.67;2.73;;;;;;;;;;5032931;28;20299;-57
2022/02/19 13:02:05;;;;;;;3.47;1.57;;;;;;;;;;5050540;28;20549;-57
2022/02/19 13:04:35;;;;;;;3.80;2.00;;;;;;;;;;5047093;28;20181;-57
2022/02/19 13:07:02;;;;;;;4.10;1.97;;;;;;;;;;5050420;28;20173;-57
2022/02/19 13:09:29;;;;;;;2.17;1.57;;;;;;;;;;5046925;28;20613;-57
2022/02/19 13:11:57;;;;;;;3.63;1.73;;;;;;;;;;5037012;28;20189;-57
2022/02/19 13:14:27;;;;;;;6.57;2.00;;;;;;;;;;5030984;28;20633;-58
2022/02/19 13:16:56;;;;;;;3.43;1.77;;;;;;;;;;5050572;28;20547;-58
2022/02/19 13:19:22;;;;;;;2.77;1.80;;;;;;;;;;5045020;28;20173;-58
2022/02/19 13:21:58;;;;;;;2.20;1.60;;;;;;;;;;5029929;28;20178;-57
2022/02/19 13:24:24;;;;;;;4.40;1.60;;;;;;;;;;5019374;28;20178;-57
2022/02/19 13:26:50;;;;;;;4.77;1.47;;;;;;;;;;5038165;28;20232;-57
2022/02/19 13:29:23;;;;;;;3.57;1.67;;;;;;;;;;5028721;28;20512;-58
2022/02/19 13:31:50;;;;;;;3.37;1.90;;;;;;;;;;5050313;28;20228;-57
2022/02/19 13:34:17;;;;;;;5.50;2.03;;;;;;;;;;5030416;28;20250;-58
2022/02/19 13:36:43;;;;;;;2.73;1.50;;;;;;;;;;5030874;28;20224;-58
2022/02/19 13:39:17;;;;;;;4.23;1.67;;;;;;;;;;5028999;28;20205;-57
2022/02/19 13:41:52;;;;;;;4.67;1.63;;;;;;;;;;5029485;28;20204;-58
2022/02/19 13:44:18;;;;;;;5.10;1.80;;;;;;;;;;5030085;28;20204;-57
2022/02/19 13:46:44;;;;;;;3.00;1.50;;;;;;;;;;5019222;28;20657;-57
2022/02/19 13:49:12;;;;;;;4.83;1.73;;;;;;;;;;5009003;28;20185;-58
2022/02/19 13:51:38;;;;;;;5.40;1.70;;;;;;;;;;5049816;28;20657;-57
2022/02/19 13:54:15;;;;;;;3.63;1.93;;;;;;;;;;5024029;28;20273;-57
2022/02/19 13:56:41;;;;;;;2.37;1.40;;;;;;;;;;5008598;28;20569;-58
2022/02/19 13:59:07;;;;;;;4.60;1.33;;;;;;;;;;5007480;28;20185;-57
2022/02/19 14:01:41;;;;;;;5.63;1.80;;;;;;;;;;5041128;28;20193;-58
2022/02/19 14:04:07;;;;;;;6.17;1.60;;;;;;;;;;5018355;28;20162;-57
2022/02/19 14:06:36;;;;;;;5.30;1.80;;;;;;;;;;5029827;28;20196;-58
2022/02/19 14:09:16;;;;;;;1.97;1.60;;;;;;;;;;5033174;28;20221;-57
2022/02/19 14:11:48;;;;;;;1.50;1.30;;;;;;;;;;5019777;28;20182;-57
2022/02/19 14:14:35;;;;;;;2.40;1.57;;;;;;;;;;5014492;28;20181;-57
2022/02/19 14:17:04;;;;;;;3.83;1.73;;;;;;;;;;5022774;28;20209;-57
2022/02/19 14:19:31;;;;;;;5.30;1.70;;;;;;;;;;5013642;28;20178;-57
2022/02/19 14:22:06;;;;;;;2.10;1.37;;;;;;;;;;5035224;28;20178;-57
2022/02/19 14:24:32;;;;;;;3.37;1.87;;;;;;;;;;5031762;28;20185;-57
2022/02/19 14:27:10;;;;;;;4.43;2.53;;;;;;;;;;5031800;28;20225;-58
2022/02/19 14:29:36;;;;;;;3.33;2.00;;;;;;;;;;5024327;28;20185;-58
2022/02/19 14:32:02;;;;;;;5.90;1.53;;;;;;;;;;5028163;28;20178;-57
2022/02/19 14:34:29;;;;;;;2.50;1.10;;;;;;;;;;5021754;28;20247;-57
2022/02/19 14:36:55;;;;;;;5.17;1.87;;;;;;;;;;5030248;28;20233;-57
2022/02/19 14:39:22;;;;;;;4.00;1.40;;;;;;;;;;5034427;28;20612;-58
2022/02/19 14:41:48;;;;;;;3.50;1.70;;;;;;;;;;5030867;28;20994;-58
2022/02/19 14:44:14;;;;;;;2.37;1.47;;;;;;;;;;5028689;28;20174;-57
2022/02/19 14:46:40;;;;;;;4.67;1.80;;;;;;;;;;5011525;28;20195;-57
2022/02/19 14:49:06;;;;;;;1.87;1.30;;;;;;;;;;5011637;28;20195;-57
2022/02/19 14:51:32;;;;;;;2.60;1.57;;;;;;;;;;5030993;28;20605;-57
2022/02/19 14:53:58;;;;;;;5.27;1.80;;;;;;;;;;5027424;28;20178;-57
2022/02/19 14:56:24;;;;;;;3.47;1.67;;;;;;;;;;5027928;28;20250;-57